Time;durP1;ratioP1;P1;durP2;ratioP2;P2;SDS_P1;SDS_P2;PMS_P1;PMS_P2;Temp;Humidity;BMP_temperature;BMP_pressure;BME280_temperature;BME280_humidity;BME280_pressure;Samples;Min_cycle;Max_cycle;Signal;HPM_P1;HPM_P2
2021/08/29 00:00:49;;;;;;;14.03;12.87;;;29.00;53.10;;;;;;5040057;28;20819;-46
2021/08/29 00:03:21;;;;;;;13.03;12.00;;;28.90;54.20;;;;;;5042740;28;20456;-45
2021/08/29 00:05:52;;;;;;;12.47;11.57;;;28.80;54.10;;;;;;5043364;28;20528;-43
2021/08/29 00:08:25;;;;;;;12.50;11.57;;;28.90;54.10;;;;;;5043155;28;20424;-46
2021/08/29 00:10:57;;;;;;;12.60;11.60;;;28.80;54.10;;;;;;5043253;28;20457;-44
2021/08/29 00:13:28;;;;;;;11.80;10.90;;;28.70;54.20;;;;;;5043032;28;20457;-45
2021/08/29 00:15:59;;;;;;;10.90;10.10;;;28.60;54.30;;;;;;5042734;28;20514;-45
2021/08/29 00:18:30;;;;;;;10.53;9.63;;;28.60;54.20;;;;;;5043095;28;20481;-43
2021/08/29 00:21:02;;;;;;;11.17;10.30;;;28.50;54.60;;;;;;5042991;28;20484;-45
2021/08/29 00:23:34;;;;;;;10.80;10.00;;;28.40;54.30;;;;;;5042344;28;20458;-46
2021/08/29 00:26:08;;;;;;;10.33;9.53;;;28.30;54.80;;;;;;5042358;28;20512;-47
2021/08/29 00:28:40;;;;;;;11.33;10.33;;;28.30;54.60;;;;;;5042613;28;20448;-46
2021/08/29 00:31:11;;;;;;;10.87;10.07;;;28.20;54.60;;;;;;5042782;28;20517;-46
2021/08/29 00:33:42;;;;;;;10.60;9.80;;;28.10;55.20;;;;;;5036022;28;20452;-47
2021/08/29 00:36:13;;;;;;;10.37;9.67;;;28.00;54.90;;;;;;5022589;28;20451;-50
2021/08/29 00:38:46;;;;;;;10.90;10.03;;;28.00;55.10;;;;;;5021976;28;20444;-53
2021/08/29 00:41:17;;;;;;;10.20;9.50;;;28.00;54.80;;;;;;5022937;28;20456;-44
2021/08/29 00:43:48;;;;;;;10.27;9.47;;;27.90;54.70;;;;;;5022821;28;20829;-52
2021/08/29 00:46:20;;;;;;;10.17;9.37;;;27.90;54.60;;;;;;5022590;28;20649;-50
2021/08/29 00:48:52;;;;;;;8.80;8.10;;;27.80;55.10;;;;;;5022498;28;20512;-48
2021/08/29 00:51:23;;;;;;;8.60;7.90;;;27.80;54.40;;;;;;5022686;28;20457;-53
2021/08/29 00:53:57;;;;;;;10.43;9.43;;;27.80;54.10;;;;;;5021760;28;20435;-53
2021/08/29 00:56:28;;;;;;;9.97;9.10;;;27.70;53.70;;;;;;5022002;28;20447;-53
2021/08/29 00:59:00;;;;;;;9.13;8.43;;;27.70;53.60;;;;;;5022454;28;20456;-49
2021/08/29 01:01:38;;;;;;;8.63;7.83;;;27.70;54.20;;;;;;5022387;28;20538;-47
2021/08/29 01:04:21;;;;;;;8.93;8.23;;;27.60;55.10;;;;;;5022252;28;20446;-48
2021/08/29 01:06:59;;;;;;;8.43;7.63;;;27.60;55.10;;;;;;5049424;28;20445;-49
2021/08/29 01:09:33;;;;;;;8.57;7.97;;;27.50;55.10;;;;;;5061273;28;20446;-48
2021/08/29 01:12:07;;;;;;;8.10;7.40;;;27.50;55.30;;;;;;5061708;28;20453;-49
2021/08/29 01:14:42;;;;;;;9.20;8.40;;;27.40;55.70;;;;;;5061182;28;20564;-49
2021/08/29 01:17:14;;;;;;;8.70;7.90;;;27.40;55.70;;;;;;5061851;28;20561;-47
2021/08/29 01:19:58;;;;;;;9.27;8.50;;;27.40;55.60;;;;;;5061737;28;20465;-49
2021/08/29 01:22:50;;;;;;;8.77;7.93;;;27.30;55.90;;;;;;5061773;28;20460;-47
2021/08/29 01:25:26;;;;;;;8.33;7.70;;;27.30;55.90;;;;;;5061516;28;20449;-45
2021/08/29 01:28:03;;;;;;;7.70;7.10;;;27.20;56.40;;;;;;5061410;28;20458;-50
2021/08/29 01:30:36;;;;;;;8.10;7.50;;;27.20;55.80;;;;;;5059443;28;20427;-49
2021/08/29 01:33:11;;;;;;;7.97;7.27;;;27.20;56.30;;;;;;5061470;28;20459;-49
2021/08/29 01:35:43;;;;;;;7.90;7.20;;;27.00;56.70;;;;;;5058624;28;20498;-50
2021/08/29 01:38:15;;;;;;;7.80;7.20;;;27.00;56.50;;;;;;5061316;28;21018;-49
2021/08/29 01:40:47;;;;;;;8.17;7.50;;;26.90;56.40;;;;;;5061333;28;20446;-51
2021/08/29 01:43:18;;;;;;;7.97;7.40;;;26.90;56.50;;;;;;5061379;28;20468;-48
2021/08/29 01:45:51;;;;;;;7.73;7.10;;;26.80;56.70;;;;;;5061206;28;20449;-50
2021/08/29 01:48:23;;;;;;;7.93;7.10;;;26.80;56.90;;;;;;5061766;28;20585;-46
2021/08/29 01:50:54;;;;;;;7.57;6.93;;;26.80;56.90;;;;;;5061282;28;20440;-46
2021/08/29 01:53:25;;;;;;;7.63;6.47;;;26.80;56.90;;;;;;5060939;28;20444;-50
2021/08/29 01:55:56;;;;;;;7.60;6.93;;;26.70;57.30;;;;;;5047265;28;20493;-43
2021/08/29 01:58:28;;;;;;;7.13;6.53;;;26.60;57.40;;;;;;5041222;28;20514;-45
2021/08/29 02:01:02;;;;;;;6.90;6.30;;;26.50;57.90;;;;;;5041173;28;21169;-48
2021/08/29 02:03:33;;;;;;;7.10;6.60;;;26.40;57.20;;;;;;5041588;28;20444;-48
2021/08/29 02:06:11;;;;;;;6.20;5.80;;;26.30;57.90;;;;;;5041098;28;20445;-49
2021/08/29 02:08:51;;;;;;;7.00;6.43;;;26.20;57.80;;;;;;5040756;28;20475;-49
2021/08/29 02:11:24;;;;;;;7.10;6.50;;;26.30;58.00;;;;;;5041087;28;20935;-49
2021/08/29 02:13:58;;;;;;;6.67;6.17;;;26.20;57.70;;;;;;5040684;28;20463;-46
2021/08/29 02:16:36;;;;;;;6.47;5.87;;;26.20;57.70;;;;;;5041264;28;20504;-45
2021/08/29 02:19:08;;;;;;;6.77;6.27;;;26.10;57.50;;;;;;5040752;28;20450;-50
2021/08/29 02:21:41;;;;;;;6.80;6.30;;;26.00;57.70;;;;;;5041148;28;20542;-48
2021/08/29 02:24:12;;;;;;;6.80;6.30;;;25.90;57.90;;;;;;5040389;28;20872;-51
2021/08/29 02:26:44;;;;;;;6.60;6.10;;;25.90;58.00;;;;;;5039831;28;20457;-50
2021/08/29 02:29:16;;;;;;;6.33;5.80;;;25.80;58.00;;;;;;5040408;28;20476;-50
2021/08/29 02:31:51;;;;;;;6.70;6.10;;;25.70;58.10;;;;;;5041028;28;20465;-51
2021/08/29 02:34:22;;;;;;;6.83;6.33;;;25.70;57.90;;;;;;5040497;28;20452;-50
2021/08/29 02:36:54;;;;;;;6.43;5.93;;;25.60;58.00;;;;;;5041355;28;20492;-48
2021/08/29 02:39:28;;;;;;;6.70;6.10;;;25.60;58.30;;;;;;5040186;28;20601;-52
2021/08/29 02:41:59;;;;;;;6.93;6.23;;;25.40;58.40;;;;;;5041004;28;20549;-50
2021/08/29 02:44:32;;;;;;;7.07;6.47;;;25.40;58.60;;;;;;5040239;28;20446;-49
2021/08/29 02:47:05;;;;;;;6.60;6.10;;;25.30;58.90;;;;;;5040629;28;20449;-45
2021/08/29 02:49:37;;;;;;;7.03;6.43;;;25.20;59.40;;;;;;5040457;28;20453;-46
2021/08/29 02:52:08;;;;;;;6.83;6.33;;;25.10;59.30;;;;;;5041069;28;20441;-45
2021/08/29 02:54:42;;;;;;;6.63;6.13;;;25.00;59.60;;;;;;5039436;28;20472;-51
2021/08/29 02:57:15;;;;;;;6.83;6.27;;;25.00;59.60;;;;;;5039810;28;20492;-44
2021/08/29 02:59:47;;;;;;;6.73;6.23;;;24.90;59.50;;;;;;5040493;28;20449;-49
2021/08/29 03:02:20;;;;;;;6.73;6.23;;;24.80;59.80;;;;;;5040395;28;20510;-49
2021/08/29 03:04:52;;;;;;;6.40;5.80;;;24.80;60.20;;;;;;5040353;28;20449;-51
2021/08/29 03:07:23;;;;;;;7.53;5.73;;;24.70;60.60;;;;;;5022351;28;20493;-49
2021/08/29 03:09:55;;;;;;;6.97;6.27;;;24.60;61.00;;;;;;5020061;28;20454;-48
2021/08/29 03:12:26;;;;;;;6.90;6.30;;;24.50;61.50;;;;;;5020213;28;20446;-46
2021/08/29 03:14:58;;;;;;;6.93;6.33;;;24.40;61.70;;;;;;5020420;28;20549;-48
2021/08/29 03:17:31;;;;;;;6.47;5.97;;;24.40;61.90;;;;;;5019972;28;20551;-43
2021/08/29 03:20:07;;;;;;;6.90;6.30;;;24.30;62.00;;;;;;5020417;28;20509;-48
2021/08/29 03:22:39;;;;;;;6.83;6.23;;;24.30;62.60;;;;;;5020477;28;20438;-44
2021/08/29 03:25:12;;;;;;;6.80;6.30;;;24.20;62.60;;;;;;5020330;28;20431;-44
2021/08/29 03:27:43;;;;;;;6.10;5.60;;;24.20;63.10;;;;;;5019927;28;20458;-48
2021/08/29 03:30:15;;;;;;;6.50;6.10;;;24.20;63.40;;;;;;5020039;28;20455;-45
2021/08/29 03:32:48;;;;;;;6.50;6.00;;;24.10;63.60;;;;;;5020366;28;20488;-46
2021/08/29 03:35:20;;;;;;;6.37;5.77;;;24.00;63.80;;;;;;5020058;28;20458;-45
2021/08/29 03:37:52;;;;;;;6.53;5.93;;;24.00;64.30;;;;;;5021760;28;20454;-47
2021/08/29 03:40:24;;;;;;;6.17;5.70;;;23.90;64.50;;;;;;5023649;28;20438;-48
2021/08/29 03:42:56;;;;;;;5.97;5.57;;;23.90;64.30;;;;;;5023357;28;20499;-46
2021/08/29 03:45:28;;;;;;;6.80;6.30;;;23.80;64.70;;;;;;5023339;28;20472;-44
2021/08/29 03:48:01;;;;;;;6.50;5.90;;;23.70;65.10;;;;;;5023264;28;20510;-45
2021/08/29 03:50:33;;;;;;;7.00;6.50;;;23.70;65.30;;;;;;5023587;28;20454;-47
2021/08/29 03:53:05;;;;;;;6.50;6.00;;;23.60;66.10;;;;;;5023628;28;20927;-46
2021/08/29 03:55:36;;;;;;;6.93;6.43;;;23.50;66.30;;;;;;5023080;28;20580;-51
2021/08/29 03:58:08;;;;;;;6.23;5.70;;;23.50;66.60;;;;;;5023122;28;20499;-48
2021/08/29 04:00:40;;;;;;;6.60;6.00;;;23.40;66.90;;;;;;5023698;28;20454;-51
2021/08/29 04:03:13;;;;;;;6.13;5.57;;;23.40;66.80;;;;;;5023597;28;20838;-47
2021/08/29 04:05:45;;;;;;;5.70;5.30;;;23.40;67.80;;;;;;5023391;28;20524;-46
2021/08/29 04:08:21;;;;;;;5.70;5.30;;;23.30;67.30;;;;;;5023280;28;20450;-45
2021/08/29 04:10:53;;;;;;;6.10;5.60;;;23.20;67.60;;;;;;5023337;28;20434;-45
2021/08/29 04:13:29;;;;;;;6.20;5.60;;;23.20;68.00;;;;;;5023096;28;20484;-42
2021/08/29 04:16:03;;;;;;;6.00;5.40;;;23.10;68.40;;;;;;5023149;28;20478;-47
2021/08/29 04:18:41;;;;;;;5.80;5.20;;;23.10;68.40;;;;;;5022870;28;20443;-51
2021/08/29 04:21:13;;;;;;;5.23;4.83;;;23.00;68.70;;;;;;5023073;28;20481;-49
2021/08/29 04:23:45;;;;;;;5.60;5.20;;;22.90;69.20;;;;;;5022778;28;20471;-48
2021/08/29 04:26:16;;;;;;;5.47;5.07;;;22.80;69.90;;;;;;5022870;28;20503;-51
2021/08/29 04:28:48;;;;;;;6.07;5.60;;;22.70;70.70;;;;;;5022261;28;20479;-49
2021/08/29 04:31:24;;;;;;;5.70;5.30;;;22.70;71.50;;;;;;5023058;28;20417;-50
2021/08/29 04:33:57;;;;;;;5.77;5.27;;;22.70;71.90;;;;;;5030943;28;20922;-48
2021/08/29 04:36:28;;;;;;;5.60;5.20;;;22.70;72.60;;;;;;5042570;28;21052;-48
2021/08/29 04:39:01;;;;;;;5.90;5.40;;;22.60;73.30;;;;;;5041631;28;20420;-51
2021/08/29 04:41:32;;;;;;;5.47;5.03;;;22.60;74.00;;;;;;5042837;28;20459;-50
2021/08/29 04:44:03;;;;;;;5.30;4.90;;;22.50;75.00;;;;;;5041882;28;20432;-46
2021/08/29 04:46:35;;;;;;;5.10;4.70;;;22.30;75.70;;;;;;5042602;28;20428;-48
2021/08/29 04:49:08;;;;;;;5.53;5.03;;;22.30;76.70;;;;;;5041095;28;20473;-45
2021/08/29 04:51:39;;;;;;;5.90;5.23;;;22.20;77.30;;;;;;5042513;28;20453;-47
2021/08/29 04:54:10;;;;;;;5.50;5.10;;;22.20;77.90;;;;;;5041649;28;20413;-43
2021/08/29 04:56:41;;;;;;;4.53;4.17;;;22.10;78.50;;;;;;5042525;28;20545;-48
2021/08/29 04:59:12;;;;;;;5.17;4.67;;;22.10;78.90;;;;;;5041766;28;20445;-43
2021/08/29 05:01:43;;;;;;;4.40;4.10;;;22.10;79.40;;;;;;5042709;28;20450;-42
2021/08/29 05:04:16;;;;;;;5.60;5.07;;;22.00;80.40;;;;;;5041705;28;20486;-47
2021/08/29 05:06:49;;;;;;;4.73;4.33;;;21.90;80.00;;;;;;5028729;28;20458;-43
2021/08/29 05:09:20;;;;;;;4.53;4.13;;;21.90;79.90;;;;;;5021140;28;20511;-46
2021/08/29 05:11:51;;;;;;;4.20;3.90;;;21.80;80.60;;;;;;5023047;28;20448;-49
2021/08/29 05:14:22;;;;;;;5.10;4.43;;;21.80;80.70;;;;;;5021742;28;20425;-45
2021/08/29 05:16:53;;;;;;;4.57;4.17;;;21.70;80.90;;;;;;5022406;28;20508;-48
2021/08/29 05:19:26;;;;;;;4.40;3.87;;;21.70;81.30;;;;;;5021827;28;20450;-44
2021/08/29 05:21:58;;;;;;;5.93;3.67;;;21.60;81.10;;;;;;5022233;28;20514;-44
2021/08/29 05:24:29;;;;;;;4.30;3.90;;;21.60;81.60;;;;;;5021118;28;20421;-44
2021/08/29 05:27:00;;;;;;;4.00;3.60;;;21.50;81.50;;;;;;5022413;28;20409;-45
2021/08/29 05:29:31;;;;;;;6.80;4.30;;;21.60;81.40;;;;;;5021299;28;20466;-48
2021/08/29 05:32:02;;;;;;;4.37;3.97;;;21.60;81.60;;;;;;5022146;28;20425;-43
2021/08/29 05:34:35;;;;;;;4.20;3.90;;;21.60;81.70;;;;;;5035125;28;20434;-43
2021/08/29 05:37:07;;;;;;;3.40;3.10;;;21.50;81.60;;;;;;5041938;28;20539;-42
2021/08/29 05:39:38;;;;;;;3.87;3.53;;;21.50;81.80;;;;;;5040958;28;20511;-45
2021/08/29 05:42:09;;;;;;;3.40;3.20;;;21.50;82.00;;;;;;5042058;28;20408;-42
2021/08/29 05:44:40;;;;;;;3.57;3.27;;;21.50;81.90;;;;;;5041333;28;20427;-42
2021/08/29 05:47:11;;;;;;;3.20;2.97;;;21.40;82.40;;;;;;5041732;28;20453;-43
2021/08/29 05:49:44;;;;;;;3.77;3.47;;;21.40;82.40;;;;;;5041244;28;20500;-42
2021/08/29 05:52:15;;;;;;;3.30;3.00;;;21.40;82.40;;;;;;5041485;28;20507;-44
2021/08/29 05:54:46;;;;;;;4.70;3.00;;;21.40;82.60;;;;;;5040774;28;20426;-45
2021/08/29 05:57:17;;;;;;;3.37;3.07;;;21.40;82.50;;;;;;5041258;28;20456;-42
2021/08/29 05:59:48;;;;;;;3.43;3.23;;;21.40;82.50;;;;;;5040998;28;20428;-42
2021/08/29 06:02:20;;;;;;;3.23;3.00;;;21.30;82.70;;;;;;5041467;28;20479;-43
2021/08/29 06:04:53;;;;;;;3.20;2.90;;;21.20;83.10;;;;;;5041175;28;20449;-43
2021/08/29 06:07:24;;;;;;;3.27;2.87;;;21.20;83.10;;;;;;5022999;28;20610;-45
2021/08/29 06:09:55;;;;;;;3.40;3.10;;;21.20;82.90;;;;;;5020686;28;20450;-41
2021/08/29 06:12:26;;;;;;;3.00;2.80;;;21.20;82.70;;;;;;5021316;28;20413;-46
2021/08/29 06:14:57;;;;;;;2.60;2.40;;;21.20;82.70;;;;;;5021220;28;20425;-42
2021/08/29 06:17:28;;;;;;;2.60;2.40;;;21.20;83.00;;;;;;5021100;28;20494;-48
2021/08/29 06:20:01;;;;;;;2.83;2.63;;;21.10;83.10;;;;;;5021121;28;20554;-46
2021/08/29 06:22:35;;;;;;;2.70;2.50;;;21.00;83.30;;;;;;5021263;28;20441;-42
2021/08/29 06:25:07;;;;;;;2.43;2.23;;;21.00;83.40;;;;;;5020862;28;20498;-45
2021/08/29 06:27:38;;;;;;;2.80;2.50;;;20.90;83.20;;;;;;5020890;28;20458;-41
2021/08/29 06:30:10;;;;;;;2.50;2.30;;;21.00;83.10;;;;;;5020811;28;20879;-42
2021/08/29 06:32:41;;;;;;;2.80;2.60;;;21.00;83.00;;;;;;5020969;28;20470;-46
2021/08/29 06:35:14;;;;;;;2.17;1.97;;;20.90;83.10;;;;;;5039714;28;20428;-41
2021/08/29 06:37:45;;;;;;;2.50;2.30;;;20.90;83.30;;;;;;5040206;28;20478;-48
2021/08/29 06:40:19;;;;;;;5.73;2.27;;;20.90;83.30;;;;;;5040714;28;20438;-42
2021/08/29 06:42:50;;;;;;;2.30;2.10;;;20.80;83.30;;;;;;5040628;28;20905;-41
2021/08/29 06:45:22;;;;;;;2.47;1.90;;;20.80;83.60;;;;;;5040769;28;20447;-47
2021/08/29 06:47:53;;;;;;;2.40;2.20;;;20.70;83.70;;;;;;5040574;28;20502;-41
2021/08/29 06:50:26;;;;;;;2.10;2.00;;;20.70;83.70;;;;;;5040477;28;20428;-42
2021/08/29 06:52:57;;;;;;;2.13;1.97;;;20.70;84.00;;;;;;5039929;28;20503;-45
2021/08/29 06:55:28;;;;;;;1.80;1.70;;;20.60;84.50;;;;;;5040378;28;20922;-43
2021/08/29 06:57:59;;;;;;;2.40;2.20;;;20.70;84.60;;;;;;5040551;28;20859;-44
2021/08/29 07:00:30;;;;;;;3.70;2.20;;;20.60;85.00;;;;;;5040338;28;20449;-43
2021/08/29 07:03:01;;;;;;;2.53;2.33;;;20.60;85.60;;;;;;5040453;28;20454;-45
2021/08/29 07:05:35;;;;;;;2.20;2.10;;;20.50;85.90;;;;;;5037044;28;20416;-41
2021/08/29 07:08:06;;;;;;;2.43;2.23;;;20.50;86.80;;;;;;5020149;28;20450;-41
2021/08/29 07:10:38;;;;;;;2.90;2.10;;;20.40;87.30;;;;;;5020352;28;20428;-41
2021/08/29 07:13:09;;;;;;;4.13;2.27;;;20.40;87.40;;;;;;5019505;28;20507;-42
2021/08/29 07:15:40;;;;;;;2.13;2.00;;;20.40;87.90;;;;;;5020271;28;20473;-42
2021/08/29 07:18:11;;;;;;;2.70;2.50;;;20.40;88.30;;;;;;5020228;28;20467;-50
2021/08/29 07:20:44;;;;;;;2.53;2.33;;;20.30;88.80;;;;;;5020008;28;21024;-50
2021/08/29 07:23:15;;;;;;;3.50;2.50;;;20.30;89.20;;;;;;5019913;28;20450;-48
2021/08/29 07:25:46;;;;;;;2.80;2.60;;;20.20;89.80;;;;;;5019918;28;20460;-48
2021/08/29 07:28:18;;;;;;;3.80;2.57;;;20.20;90.10;;;;;;5019870;28;20459;-45
2021/08/29 07:30:49;;;;;;;2.33;2.13;;;20.20;90.40;;;;;;5019976;28;20518;-48
2021/08/29 07:33:21;;;;;;;2.60;2.40;;;20.10;90.50;;;;;;5023476;28;20529;-50
2021/08/29 07:35:53;;;;;;;3.20;2.33;;;20.10;90.80;;;;;;5039813;28;20533;-47
2021/08/29 07:38:24;;;;;;;2.73;2.27;;;20.10;91.00;;;;;;5039603;28;20530;-47
2021/08/29 07:40:56;;;;;;;2.40;2.20;;;20.10;91.30;;;;;;5039578;28;20448;-45
2021/08/29 07:43:27;;;;;;;3.17;2.40;;;20.00;91.50;;;;;;5039665;28;20502;-47
2021/08/29 07:45:58;;;;;;;2.70;2.50;;;20.00;91.80;;;;;;5039847;28;20497;-49
2021/08/29 07:48:29;;;;;;;2.53;2.33;;;20.00;92.40;;;;;;5039867;28;20450;-50
2021/08/29 07:51:02;;;;;;;2.63;2.30;;;19.90;92.20;;;;;;5039658;28;20487;-48
2021/08/29 07:53:33;;;;;;;2.50;2.30;;;19.80;92.50;;;;;;5039177;28;20437;-51
2021/08/29 07:56:04;;;;;;;3.00;2.30;;;19.80;92.80;;;;;;5039629;28;20425;-46
2021/08/29 07:58:35;;;;;;;3.47;2.40;;;19.80;93.00;;;;;;5039343;28;20628;-42
2021/08/29 08:01:06;;;;;;;2.30;2.10;;;19.80;93.20;;;;;;5039826;28;20424;-49
2021/08/29 08:03:38;;;;;;;4.03;2.40;;;19.70;93.50;;;;;;5039792;28;20449;-45
2021/08/29 08:06:11;;;;;;;3.30;2.70;;;19.70;93.60;;;;;;5031491;28;20450;-46
2021/08/29 08:08:43;;;;;;;2.77;2.57;;;19.70;93.90;;;;;;5019412;28;20404;-47
2021/08/29 08:11:14;;;;;;;2.80;2.60;;;19.60;94.10;;;;;;5019655;28;20761;-49
2021/08/29 08:13:45;;;;;;;2.20;2.10;;;19.60;94.40;;;;;;5019589;28;20457;-46
2021/08/29 08:16:16;;;;;;;2.57;2.37;;;19.50;94.60;;;;;;5020069;28;20446;-48
2021/08/29 08:18:47;;;;;;;2.90;2.50;;;19.50;94.90;;;;;;5019642;28;20468;-48
2021/08/29 08:21:20;;;;;;;2.40;2.03;;;19.50;95.10;;;;;;5019465;28;20496;-50
2021/08/29 08:23:51;;;;;;;2.63;2.43;;;19.50;95.20;;;;;;5020684;28;20503;-47
2021/08/29 08:26:22;;;;;;;2.83;2.57;;;19.50;95.50;;;;;;5023420;28;20435;-47
2021/08/29 08:28:54;;;;;;;2.87;2.67;;;19.40;95.70;;;;;;5022657;28;20486;-45
2021/08/29 08:31:25;;;;;;;4.13;2.43;;;19.40;96.10;;;;;;5023043;28;20462;-47
2021/08/29 08:33:56;;;;;;;2.70;2.50;;;19.30;96.50;;;;;;5031292;28;20462;-49
2021/08/29 08:36:29;;;;;;;2.70;2.17;;;19.20;97.40;;;;;;5042973;28;20449;-49
2021/08/29 08:39:00;;;;;;;3.40;3.10;;;19.20;97.20;;;;;;5042027;28;20518;-44
2021/08/29 08:41:32;;;;;;;2.60;2.40;;;19.10;97.50;;;;;;5042863;28;20514;-47
2021/08/29 08:44:03;;;;;;;2.53;2.33;;;19.00;97.90;;;;;;5042345;28;20449;-43
2021/08/29 08:46:34;;;;;;;2.70;2.50;;;19.00;98.20;;;;;;5043050;28;20822;-41
2021/08/29 08:49:06;;;;;;;2.83;2.63;;;18.90;98.50;;;;;;5042669;28;20532;-44
2021/08/29 08:51:46;;;;;;;2.80;2.60;;;18.90;98.80;;;;;;5042373;28;20453;-40
2021/08/29 08:54:19;;;;;;;2.67;2.47;;;18.90;99.50;;;;;;5041929;28;20437;-40
2021/08/29 08:56:51;;;;;;;2.70;2.50;;;18.80;99.40;;;;;;5042776;28;20430;-43
2021/08/29 08:59:22;;;;;;;3.03;2.70;;;18.80;99.90;;;;;;5042172;28;20504;-46
2021/08/29 09:01:53;;;;;;;2.93;2.63;;;18.70;99.90;;;;;;5042593;28;20600;-47
2021/08/29 09:04:25;;;;;;;2.87;2.53;;;18.60;99.90;;;;;;5042555;28;20961;-46
2021/08/29 09:07:00;;;;;;;3.00;2.77;;;18.60;99.90;;;;;;5028286;28;20480;-47
2021/08/29 09:09:31;;;;;;;2.60;2.40;;;18.60;99.90;;;;;;5021794;28;20488;-47
2021/08/29 09:12:02;;;;;;;3.87;2.57;;;18.50;99.90;;;;;;5022829;28;20492;-44
2021/08/29 09:14:44;;;;;;;2.60;2.40;;;18.60;99.90;;;;;;5022284;28;20450;-42
2021/08/29 09:17:30;;;;;;;2.83;2.50;;;18.50;99.90;;;;;;5022528;28;20484;-44
2021/08/29 09:20:23;;;;;;;3.00;2.70;;;18.40;99.90;;;;;;5022537;28;20494;-47
2021/08/29 09:22:57;;;;;;;3.10;2.63;;;18.30;99.90;;;;;;5022190;28;20484;-41
2021/08/29 09:25:30;;;;;;;2.77;2.57;;;18.30;99.90;;;;;;5022044;28;20446;-45
2021/08/29 09:28:09;;;;;;;3.40;2.53;;;18.30;99.90;;;;;;5020795;28;20461;-45
2021/08/29 09:30:45;;;;;;;3.10;2.80;;;18.30;99.90;;;;;;5022023;28;20438;-44
2021/08/29 09:33:17;;;;;;;3.90;2.40;;;18.30;99.90;;;;;;5022259;28;20442;-41
2021/08/29 09:35:55;;;;;;;3.00;2.70;;;18.20;99.90;;;;;;5021587;28;20462;-41
2021/08/29 09:38:28;;;;;;;2.90;2.67;;;18.20;99.90;;;;;;5021808;28;20458;-40
2021/08/29 09:40:59;;;;;;;3.37;2.87;;;18.10;99.90;;;;;;5021876;28;20452;-43
2021/08/29 09:43:37;;;;;;;3.87;2.70;;;18.10;99.90;;;;;;5021432;28;20507;-47
2021/08/29 09:46:09;;;;;;;2.47;2.27;;;18.00;99.90;;;;;;5022053;28;20442;-43
2021/08/29 09:48:40;;;;;;;3.27;2.97;;;17.90;99.90;;;;;;5021910;28;20448;-45
2021/08/29 09:51:15;;;;;;;3.17;2.73;;;17.90;99.90;;;;;;5022052;28;20555;-43
2021/08/29 09:53:48;;;;;;;2.60;2.40;;;17.90;99.90;;;;;;5021061;28;20446;-43
2021/08/29 09:56:23;;;;;;;2.67;2.47;;;17.80;99.90;;;;;;5021998;28;20817;-45
2021/08/29 09:58:56;;;;;;;2.73;2.53;;;17.70;99.90;;;;;;5021127;28;20454;-40
2021/08/29 10:01:27;;;;;;;3.03;2.77;;;17.70;99.90;;;;;;5022086;28;20813;-40
2021/08/29 10:03:59;;;;;;;3.23;2.77;;;17.60;99.90;;;;;;5021857;28;20450;-42
2021/08/29 10:06:30;;;;;;;3.93;3.17;;;17.60;99.90;;;;;;5022241;28;20779;-44
2021/08/29 10:09:04;;;;;;;3.73;2.60;;;17.50;99.90;;;;;;5020998;28;20476;-43
2021/08/29 10:11:38;;;;;;;3.70;2.97;;;17.50;99.90;;;;;;5021685;28;20509;-44
2021/08/29 10:14:12;;;;;;;4.23;3.50;;;17.40;99.90;;;;;;5020817;28;20492;-41
2021/08/29 10:16:43;;;;;;;2.80;2.50;;;17.40;99.90;;;;;;5021787;28;20451;-42
2021/08/29 10:19:17;;;;;;;2.87;2.67;;;17.30;99.90;;;;;;5021052;28;20904;-41
2021/08/29 10:21:51;;;;;;;3.00;2.73;;;17.30;99.90;;;;;;5021718;28;20473;-40
2021/08/29 10:24:27;;;;;;;2.47;2.27;;;17.20;99.90;;;;;;5020254;28;20450;-42
2021/08/29 10:27:04;;;;;;;3.50;3.20;;;17.10;99.90;;;;;;5021387;28;20571;-42
2021/08/29 10:29:42;;;;;;;3.43;2.80;;;17.00;99.90;;;;;;5021056;28;21178;-40
2021/08/29 10:32:20;;;;;;;2.70;2.50;;;17.00;99.90;;;;;;5021353;28;20947;-40
2021/08/29 10:34:51;;;;;;;2.93;2.67;;;17.00;99.90;;;;;;5036661;28;20445;-47
2021/08/29 10:37:23;;;;;;;2.80;2.57;;;17.00;99.90;;;;;;5041171;28;20434;-40
2021/08/29 10:39:56;;;;;;;2.77;2.57;;;16.90;99.90;;;;;;5040517;28;20565;-41
2021/08/29 10:42:28;;;;;;;3.20;2.33;;;16.90;99.90;;;;;;5040379;28;20510;-40
2021/08/29 10:44:59;;;;;;;3.93;2.90;;;16.80;99.90;;;;;;5040733;28;20522;-40
2021/08/29 10:47:33;;;;;;;3.50;2.70;;;16.80;99.90;;;;;;5039954;28;20453;-39
2021/08/29 10:50:05;;;;;;;8.17;3.20;;;16.80;99.90;;;;;;5040976;28;20512;-42
2021/08/29 10:52:38;;;;;;;6.27;3.03;;;16.70;99.90;;;;;;5040428;28;20446;-39
2021/08/29 10:55:14;;;;;;;3.57;2.97;;;16.70;99.90;;;;;;5039896;28;20449;-43
2021/08/29 10:57:46;;;;;;;3.60;2.93;;;16.60;99.90;;;;;;5040105;28;20501;-43
2021/08/29 11:00:19;;;;;;;4.00;3.27;;;16.60;99.90;;;;;;5040656;28;20489;-39
2021/08/29 11:02:52;;;;;;;4.27;3.50;;;16.60;99.90;;;;;;5040384;28;20453;-41
2021/08/29 11:05:54;;;;;;;2.80;2.60;;;16.50;99.90;;;;;;5038608;28;20513;-43
2021/08/29 11:08:27;;;;;;;2.80;2.43;;;16.40;99.90;;;;;;5020142;28;20471;-41
2021/08/29 11:11:00;;;;;;;2.90;2.70;;;16.40;99.90;;;;;;5019950;28;20453;-45
2021/08/29 11:13:41;;;;;;;3.20;2.80;;;16.40;99.90;;;;;;5020158;28;20446;-44
2021/08/29 11:16:33;;;;;;;3.40;3.10;;;16.30;99.90;;;;;;5020552;28;20495;-40
2021/08/29 11:19:14;;;;;;;2.60;2.40;;;16.20;99.90;;;;;;5020116;28;20447;-43
2021/08/29 11:22:13;;;;;;;3.07;2.77;;;16.10;99.90;;;;;;5020222;28;20543;-42
2021/08/29 11:25:19;;;;;;;3.00;2.70;;;16.00;99.90;;;;;;5019339;28;20476;-42
2021/08/29 11:28:05;;;;;;;3.00;2.70;;;16.00;99.90;;;;;;5020079;28;20454;-40
2021/08/29 11:30:47;;;;;;;3.40;2.80;;;15.90;99.90;;;;;;5020397;28;20450;-43
2021/08/29 11:33:26;;;;;;;2.70;2.50;;;15.90;99.90;;;;;;5023345;28;20982;-40
2021/08/29 11:35:58;;;;;;;4.20;2.83;;;15.90;99.90;;;;;;5040104;28;20509;-40
2021/08/29 11:38:38;;;;;;;3.30;3.00;;;15.80;99.90;;;;;;5039768;28;20442;-39
2021/08/29 11:41:16;;;;;;;4.63;3.10;;;15.70;99.90;;;;;;5039987;28;20477;-39
2021/08/29 11:43:50;;;;;;;3.17;2.97;;;15.70;99.90;;;;;;5039932;28;20496;-42
2021/08/29 11:46:22;;;;;;;3.27;2.73;;;15.70;99.90;;;;;;5040307;28;20493;-40
2021/08/29 11:48:56;;;;;;;3.17;2.87;;;15.60;99.90;;;;;;5040156;28;20471;-39
2021/08/29 11:51:31;;;;;;;3.30;3.00;;;15.60;99.90;;;;;;5040204;28;20518;-46
2021/08/29 11:54:04;;;;;;;4.17;3.10;;;15.60;99.90;;;;;;5038995;28;20539;-42
2021/08/29 11:56:37;;;;;;;3.90;3.30;;;15.60;99.90;;;;;;5039903;28;20482;-40
2021/08/29 11:59:10;;;;;;;2.93;2.73;;;15.60;99.90;;;;;;5042125;28;20874;-40
2021/08/29 12:01:42;;;;;;;3.03;2.73;;;15.50;99.90;;;;;;5043549;28;20492;-43
2021/08/29 12:04:22;;;;;;;4.10;3.70;;;15.50;99.90;;;;;;5043060;28;20584;-39
2021/08/29 12:07:00;;;;;;;2.90;2.70;;;15.50;99.90;;;;;;5029483;28;20450;-45
2021/08/29 12:09:33;;;;;;;3.90;3.17;;;15.40;99.90;;;;;;5022773;28;20463;-42
2021/08/29 12:12:07;;;;;;;2.93;2.73;;;15.40;99.90;;;;;;5023470;28;20604;-40
2021/08/29 12:14:40;;;;;;;2.90;2.47;;;15.40;99.90;;;;;;5023314;28;20480;-40
2021/08/29 12:17:13;;;;;;;3.60;2.73;;;15.30;99.90;;;;;;5023397;28;20869;-38
2021/08/29 12:19:44;;;;;;;3.30;3.00;;;15.30;99.90;;;;;;5023738;28;20460;-40
2021/08/29 12:22:16;;;;;;;3.20;2.90;;;15.30;99.90;;;;;;5023271;28;20497;-38
2021/08/29 12:24:48;;;;;;;4.40;3.57;;;15.20;99.90;;;;;;5022436;28;20839;-39
2021/08/29 12:27:21;;;;;;;3.03;2.83;;;15.10;99.90;;;;;;5022885;28;20503;-41
2021/08/29 12:29:55;;;;;;;3.00;2.70;;;15.10;99.90;;;;;;5023221;28;21000;-38
2021/08/29 12:32:28;;;;;;;3.47;2.83;;;15.10;99.90;;;;;;5023147;28;20438;-39
2021/08/29 12:35:02;;;;;;;3.33;2.93;;;15.00;99.90;;;;;;5023032;28;20446;-38
2021/08/29 12:37:35;;;;;;;4.00;3.10;;;15.00;99.90;;;;;;5023087;28;20450;-40
2021/08/29 12:40:08;;;;;;;3.40;3.20;;;15.00;99.90;;;;;;5022522;28;20457;-38
2021/08/29 12:42:42;;;;;;;3.70;3.30;;;15.00;99.90;;;;;;5022744;28;20454;-39
2021/08/29 12:45:17;;;;;;;3.63;3.20;;;14.90;99.90;;;;;;5022574;28;20503;-41
2021/08/29 12:47:49;;;;;;;3.23;3.00;;;14.90;99.90;;;;;;5022653;28;20433;-39
2021/08/29 12:50:21;;;;;;;3.70;3.40;;;14.80;99.90;;;;;;5022866;28;20488;-38
2021/08/29 12:52:54;;;;;;;3.27;2.80;;;14.80;99.90;;;;;;5022426;28;20511;-38
2021/08/29 12:55:26;;;;;;;3.60;3.20;;;14.70;99.90;;;;;;5024995;28;20479;-38
2021/08/29 12:57:59;;;;;;;4.30;3.70;;;14.60;99.90;;;;;;5042330;28;20453;-38
2021/08/29 13:00:40;;;;;;;4.13;3.23;;;14.70;99.90;;;;;;5042493;28;20446;-39
2021/08/29 13:03:12;;;;;;;4.13;2.87;;;14.70;99.90;;;;;;5042305;28;20517;-38
2021/08/29 13:05:44;;;;;;;3.60;3.27;;;14.60;99.90;;;;;;5042484;28;20834;-39
2021/08/29 13:08:17;;;;;;;3.90;3.57;;;14.60;99.90;;;;;;5042383;28;20463;-42
2021/08/29 13:11:04;;;;;;;3.67;3.37;;;14.50;99.90;;;;;;5041036;28;20510;-38
2021/08/29 13:13:37;;;;;;;3.40;3.10;;;14.40;99.90;;;;;;5041947;28;20453;-42
2021/08/29 13:16:12;;;;;;;4.13;3.73;;;14.40;99.90;;;;;;5042131;28;20450;-42